Time;durP1;ratioP1;P1;durP2;ratioP2;P2;SDS_P1;SDS_P2;PMS_P1;PMS_P2;Temp;Humidity;BMP_temperature;BMP_pressure;BME280_temperature;BME280_humidity;BME280_pressure;Samples;Min_cycle;Max_cycle;Signal;HPM_P1;HPM_P2
2022/03/30 00:01:58;;;;;;;31.27;10.82;;;11.50;63.50;;;;;;5225722;28;20731;-70
2022/03/30 00:04:30;;;;;;;35.65;10.95;;;11.50;63.80;;;;;;5229205;28;20636;-69
2022/03/30 00:07:03;;;;;;;40.70;11.43;;;11.50;63.90;;;;;;5220579;28;20047;-69
2022/03/30 00:09:36;;;;;;;41.10;11.98;;;11.50;64.00;;;;;;5230760;28;20040;-68
2022/03/30 00:12:09;;;;;;;35.17;11.68;;;11.50;64.20;;;;;;5223140;28;20063;-69
2022/03/30 00:14:41;;;;;;;33.30;11.25;;;11.40;64.50;;;;;;5207692;28;20059;-69
2022/03/30 00:17:14;;;;;;;39.78;11.57;;;11.50;64.10;;;;;;5232145;28;20035;-69
2022/03/30 00:19:47;;;;;;;39.97;12.00;;;11.50;64.00;;;;;;5205332;28;20067;-69
2022/03/30 00:22:19;;;;;;;44.20;11.50;;;11.50;63.90;;;;;;5221886;28;20062;-69
2022/03/30 00:24:52;;;;;;;39.20;11.43;;;11.50;63.50;;;;;;5223291;28;20059;-69
2022/03/30 00:27:24;;;;;;;37.45;12.10;;;11.50;63.50;;;;;;5223721;28;20052;-69
2022/03/30 00:29:57;;;;;;;34.92;12.23;;;11.50;63.90;;;;;;5225639;28;20297;-69
2022/03/30 00:32:30;;;;;;;46.25;12.48;;;11.40;64.40;;;;;;5225042;28;20048;-69
2022/03/30 00:35:03;;;;;;;41.70;11.70;;;11.30;64.70;;;;;;5228003;28;20040;-68
2022/03/30 00:37:37;;;;;;;35.60;11.25;;;11.20;65.10;;;;;;5228296;28;20098;-69
2022/03/30 00:40:12;;;;;;;35.85;11.13;;;11.10;65.60;;;;;;5225552;28;20052;-69
2022/03/30 00:42:45;;;;;;;44.97;11.80;;;11.10;65.80;;;;;;5234072;28;20048;-69
2022/03/30 00:45:23;;;;;;;33.42;11.10;;;11.10;65.60;;;;;;5225269;28;20060;-69
2022/03/30 00:47:55;;;;;;;39.88;12.45;;;11.10;65.30;;;;;;5225224;28;20052;-68
2022/03/30 00:50:28;;;;;;;43.95;12.55;;;11.10;65.30;;;;;;5229095;28;20950;-69
2022/03/30 00:53:01;;;;;;;33.45;11.90;;;11.10;65.80;;;;;;5224444;28;21053;-69
2022/03/30 00:55:34;;;;;;;35.53;12.70;;;11.10;65.80;;;;;;5229579;28;20052;-69
2022/03/30 00:58:07;;;;;;;39.47;12.13;;;11.10;65.90;;;;;;5226118;28;20587;-69
2022/03/30 01:00:40;;;;;;;41.00;11.10;;;11.10;66.40;;;;;;5191094;28;20048;-70
2022/03/30 01:03:13;;;;;;;37.53;11.00;;;11.00;66.40;;;;;;5210202;28;20055;-70
2022/03/30 01:05:46;;;;;;;45.90;12.30;;;11.00;66.50;;;;;;5227079;28;20048;-70
2022/03/30 01:08:19;;;;;;;45.05;12.68;;;11.00;66.00;;;;;;5224427;28;20059;-69
2022/03/30 01:10:53;;;;;;;58.55;13.40;;;11.00;65.70;;;;;;5230984;28;20893;-70
2022/03/30 01:13:25;;;;;;;43.13;12.57;;;11.00;65.60;;;;;;5207246;28;20055;-72
2022/03/30 01:15:58;;;;;;;38.28;12.13;;;11.10;65.40;;;;;;5229554;28;20044;-70
2022/03/30 01:18:38;;;;;;;36.70;13.00;;;11.10;65.30;;;;;;5222878;28;20045;-70
2022/03/30 01:21:11;;;;;;;42.92;12.40;;;11.00;65.50;;;;;;5224117;28;20298;-70
2022/03/30 01:23:43;;;;;;;40.45;14.05;;;11.00;65.80;;;;;;5226728;28;20044;-69
2022/03/30 01:26:15;;;;;;;40.20;12.88;;;11.00;65.80;;;;;;5220658;28;20044;-69
2022/03/30 01:28:48;;;;;;;38.45;13.38;;;11.00;65.80;;;;;;5226162;28;20094;-70
2022/03/30 01:34:13;;;;;;;33.53;12.15;;;11.00;65.80;;;;;;5221756;28;21920;-69
2022/03/30 01:36:46;;;;;;;45.25;13.75;;;11.00;66.00;;;;;;5213133;28;20056;-69
2022/03/30 01:39:18;;;;;;;32.70;11.77;;;10.90;66.90;;;;;;5226741;28;20087;-69
2022/03/30 01:41:51;;;;;;;40.55;12.90;;;10.90;66.40;;;;;;5216714;28;20071;-70
2022/03/30 01:44:24;;;;;;;40.45;11.32;;;10.80;66.50;;;;;;5220930;28;20044;-69
2022/03/30 01:46:57;;;;;;;35.25;14.05;;;10.90;66.80;;;;;;5225316;28;20055;-69
2022/03/30 01:49:29;;;;;;;43.38;13.13;;;10.90;67.00;;;;;;5207268;28;20051;-71
2022/03/30 01:52:03;;;;;;;32.42;13.10;;;10.90;67.10;;;;;;5227568;28;20051;-69
2022/03/30 01:54:38;;;;;;;40.15;13.68;;;10.80;67.10;;;;;;5209725;28;21074;-69
2022/03/30 01:57:13;;;;;;;49.58;13.00;;;10.90;67.10;;;;;;5202554;28;27112;-69
2022/03/30 01:59:46;;;;;;;41.90;12.77;;;10.90;67.00;;;;;;5227080;28;20052;-70
2022/03/30 02:02:19;;;;;;;39.45;12.77;;;10.90;67.70;;;;;;5239779;28;20475;-69
2022/03/30 02:04:52;;;;;;;43.72;13.45;;;10.90;67.90;;;;;;5253685;22;20064;-80
2022/03/30 02:07:25;;;;;;;32.85;11.98;;;10.80;68.10;;;;;;5244309;28;20045;-81
2022/03/30 02:09:57;;;;;;;40.35;13.00;;;10.90;68.80;;;;;;5196167;28;20048;-81
2022/03/30 02:12:30;;;;;;;39.88;12.45;;;10.80;68.10;;;;;;5239466;28;20064;-80
2022/03/30 02:15:03;;;;;;;40.03;12.55;;;10.80;68.30;;;;;;5245908;28;20063;-79
2022/03/30 02:17:36;;;;;;;45.28;12.70;;;10.70;68.60;;;;;;5231877;22;20051;-74
2022/03/30 02:20:11;;;;;;;38.83;12.50;;;10.80;68.60;;;;;;5256163;27;20048;-74
2022/03/30 02:22:44;;;;;;;42.22;13.60;;;10.70;68.50;;;;;;5269468;27;20036;-75
2022/03/30 02:25:17;;;;;;;47.53;13.63;;;10.70;68.60;;;;;;5255214;28;20371;-75
2022/03/30 02:27:50;;;;;;;35.03;12.57;;;10.70;68.50;;;;;;5268611;28;20647;-74
2022/03/30 02:30:22;;;;;;;44.00;12.90;;;10.60;68.60;;;;;;5240446;27;20293;-74
2022/03/30 02:32:55;;;;;;;42.50;12.25;;;10.60;68.80;;;;;;5268310;27;20043;-74
2022/03/30 02:35:28;;;;;;;44.63;14.35;;;10.50;68.90;;;;;;5272288;27;20051;-75
2022/03/30 02:38:01;;;;;;;44.00;13.03;;;10.60;69.50;;;;;;5247290;28;20664;-75
2022/03/30 02:40:33;;;;;;;37.33;13.70;;;10.50;69.20;;;;;;5272124;28;20531;-75
2022/03/30 02:43:06;;;;;;;35.97;11.90;;;10.60;69.20;;;;;;5252649;28;20040;-75
2022/03/30 02:45:39;;;;;;;28.13;11.57;;;10.60;69.50;;;;;;5267975;27;20047;-75
2022/03/30 02:48:22;;;;;;;36.88;12.15;;;10.60;70.00;;;;;;5247207;28;20265;-74
2022/03/30 02:50:58;;;;;;;49.67;13.68;;;10.60;70.20;;;;;;5271488;27;20055;-75
2022/03/30 02:53:32;;;;;;;48.88;12.75;;;10.50;70.50;;;;;;5268086;27;20149;-74
2022/03/30 02:56:05;;;;;;;38.05;11.93;;;10.50;70.60;;;;;;5246883;28;20047;-74
2022/03/30 02:58:37;;;;;;;40.72;12.10;;;10.50;70.70;;;;;;5264778;27;20054;-74
2022/03/30 03:01:09;;;;;;;46.88;12.27;;;10.50;70.60;;;;;;5274005;27;20055;-74
2022/03/30 03:03:42;;;;;;;43.08;11.88;;;10.50;70.60;;;;;;5275120;28;20491;-74
2022/03/30 03:06:14;;;;;;;45.15;12.07;;;10.50;70.70;;;;;;5247704;28;20051;-74
2022/03/30 03:08:47;;;;;;;45.17;12.75;;;10.50;70.60;;;;;;5265276;28;20043;-74
2022/03/30 03:11:19;;;;;;;39.10;12.05;;;10.60;70.20;;;;;;5270416;27;20047;-75
2022/03/30 03:13:52;;;;;;;37.78;12.57;;;10.60;70.20;;;;;;5271658;28;20055;-75
2022/03/30 03:16:24;;;;;;;33.72;12.68;;;10.60;70.00;;;;;;5272561;28;20044;-74
2022/03/30 03:18:57;;;;;;;40.08;12.05;;;10.50;70.10;;;;;;5265481;28;20051;-75
2022/03/30 03:21:29;;;;;;;36.90;12.60;;;10.50;70.00;;;;;;5270069;28;20058;-75
2022/03/30 03:24:02;;;;;;;45.92;13.25;;;10.50;70.20;;;;;;5272079;28;20438;-74
2022/03/30 03:26:34;;;;;;;37.88;13.10;;;10.50;70.20;;;;;;5268760;28;20066;-74
2022/03/30 03:29:07;;;;;;;33.90;11.82;;;10.40;70.20;;;;;;5234417;28;20090;-75
2022/03/30 03:31:39;;;;;;;42.03;12.55;;;10.40;70.30;;;;;;5271270;28;20055;-75
2022/03/30 03:34:12;;;;;;;27.15;11.25;;;10.40;70.20;;;;;;5269367;28;20043;-74
2022/03/30 03:36:44;;;;;;;37.70;12.23;;;10.40;70.30;;;;;;5259393;28;20059;-74
2022/03/30 03:39:17;;;;;;;39.90;12.85;;;10.40;70.60;;;;;;5249825;28;20070;-74
2022/03/30 03:41:49;;;;;;;37.53;12.95;;;10.40;70.40;;;;;;5244986;28;20055;-75
2022/03/30 03:44:22;;;;;;;47.70;13.65;;;10.30;70.30;;;;;;5267669;28;20043;-74
2022/03/30 03:46:54;;;;;;;38.22;13.57;;;10.30;70.30;;;;;;5269576;28;20043;-73
2022/03/30 03:49:27;;;;;;;41.83;13.07;;;10.20;70.20;;;;;;5262922;28;20036;-74
2022/03/30 03:52:00;;;;;;;44.72;13.68;;;10.20;70.20;;;;;;5261295;28;20054;-74
2022/03/30 03:54:33;;;;;;;34.33;13.52;;;10.10;70.00;;;;;;5263232;28;20052;-74
2022/03/30 03:57:06;;;;;;;40.00;12.98;;;10.10;70.10;;;;;;5269246;28;20051;-74
2022/03/30 03:59:39;;;;;;;41.70;14.00;;;10.10;70.30;;;;;;5264663;28;20048;-74
2022/03/30 04:02:11;;;;;;;34.63;14.40;;;10.10;70.20;;;;;;5260003;28;20052;-74
2022/03/30 04:04:44;;;;;;;39.25;13.65;;;10.10;70.20;;;;;;5264375;28;20040;-74
2022/03/30 04:07:16;;;;;;;44.00;13.13;;;10.00;70.00;;;;;;5258861;28;20046;-74
2022/03/30 04:09:49;;;;;;;42.05;13.75;;;10.10;70.00;;;;;;5249500;28;20044;-73
2022/03/30 04:12:21;;;;;;;46.20;13.43;;;10.10;70.00;;;;;;5263432;28;20059;-73
2022/03/30 04:14:54;;;;;;;41.30;12.05;;;10.10;69.90;;;;;;5260302;28;20353;-74
2022/03/30 04:17:26;;;;;;;35.78;13.00;;;10.10;69.90;;;;;;5261109;28;21031;-73
2022/03/30 04:19:59;;;;;;;43.15;14.02;;;10.00;69.70;;;;;;5244528;28;20048;-74
2022/03/30 04:22:31;;;;;;;39.97;13.07;;;10.00;69.70;;;;;;5263657;27;20055;-74
2022/03/30 04:25:05;;;;;;;41.15;14.10;;;10.00;69.50;;;;;;5263830;27;21348;-73
2022/03/30 04:27:44;;;;;;;36.50;13.55;;;10.00;69.60;;;;;;5256480;28;20052;-73
2022/03/30 04:30:19;;;;;;;37.97;14.10;;;9.90;69.80;;;;;;5263351;27;20043;-73
2022/03/30 04:32:53;;;;;;;34.03;13.15;;;9.90;70.50;;;;;;5248314;27;20044;-74
2022/03/30 04:35:26;;;;;;;;;;;9.90;70.00;;;;;;5245826;27;20059;-74
2022/03/30 04:37:58;;;;;;;36.55;12.88;;;9.80;71.10;;;;;;5258630;27;19927;-73
2022/03/30 04:40:30;;;;;;;49.80;14.95;;;9.80;70.10;;;;;;5261315;27;20054;-74
2022/03/30 04:43:03;;;;;;;35.75;12.10;;;9.90;70.20;;;;;;5256096;28;20047;-74
2022/03/30 04:45:36;;;;;;;35.28;11.95;;;9.90;70.10;;;;;;5270282;27;20039;-74
2022/03/30 04:48:09;;;;;;;40.50;12.93;;;9.80;70.00;;;;;;5257698;28;20607;-74
2022/03/30 04:50:42;;;;;;;36.63;13.40;;;9.80;70.10;;;;;;5268620;27;20043;-74
2022/03/30 04:53:15;;;;;;;38.85;14.73;;;9.80;70.00;;;;;;5257552;28;20400;-74
2022/03/30 04:55:48;;;;;;;35.90;13.02;;;9.80;69.90;;;;;;5266103;27;20816;-73
2022/03/30 04:58:20;;;;;;;32.85;13.48;;;9.80;70.00;;;;;;5262368;27;20059;-73
2022/03/30 05:00:53;;;;;;;43.58;14.05;;;9.70;70.10;;;;;;5256184;27;20055;-72
2022/03/30 05:03:25;;;;;;;29.25;13.80;;;9.70;70.10;;;;;;5247177;27;20048;-72
2022/03/30 05:05:59;;;;;;;46.42;12.98;;;9.80;70.30;;;;;;5245746;27;21112;-73
2022/03/30 05:08:35;;;;;;;49.30;13.80;;;9.80;70.10;;;;;;5246198;27;20043;-72
2022/03/30 05:11:07;;;;;;;45.65;14.30;;;9.80;70.00;;;;;;5248169;27;20048;-73
2022/03/30 05:13:40;;;;;;;41.65;13.90;;;9.80;70.60;;;;;;5245233;27;20043;-72
2022/03/30 05:16:12;;;;;;;46.75;12.50;;;9.90;70.70;;;;;;5240626;28;20058;-73
2022/03/30 05:18:45;;;;;;;32.60;13.05;;;9.90;70.10;;;;;;5245415;27;20416;-73
2022/03/30 05:21:17;;;;;;;44.97;14.25;;;9.90;70.40;;;;;;5254659;27;20035;-72
2022/03/30 05:23:50;;;;;;;38.03;12.60;;;10.00;70.20;;;;;;5252589;27;20494;-73
2022/03/30 05:26:22;;;;;;;36.70;13.02;;;9.90;70.40;;;;;;5255260;27;20040;-73
2022/03/30 05:28:55;;;;;;;41.65;13.05;;;10.00;71.30;;;;;;5256536;28;20044;-73
2022/03/30 05:31:27;;;;;;;40.38;14.13;;;10.00;70.40;;;;;;5256271;27;20048;-72
2022/03/30 05:34:00;;;;;;;43.78;13.00;;;10.10;69.80;;;;;;5249269;27;20048;-72
2022/03/30 05:36:32;;;;;;;40.83;13.77;;;10.10;69.70;;;;;;5261645;27;20059;-73
2022/03/30 05:39:05;;;;;;;35.70;12.95;;;10.10;70.00;;;;;;5246379;28;20039;-73
2022/03/30 05:41:38;;;;;;;32.30;12.05;;;10.00;70.00;;;;;;5260218;28;20058;-74
2022/03/30 05:44:10;;;;;;;39.85;13.40;;;10.10;70.20;;;;;;5249886;28;20567;-75
2022/03/30 05:46:43;;;;;;;38.65;13.18;;;10.10;70.30;;;;;;5278203;27;20051;-74
2022/03/30 05:49:16;;;;;;;38.08;13.48;;;10.10;69.90;;;;;;5274215;27;20411;-75
2022/03/30 05:51:48;;;;;;;34.65;13.13;;;10.10;70.00;;;;;;5272035;27;20486;-74
2022/03/30 05:54:21;;;;;;;46.33;13.25;;;10.10;70.10;;;;;;5258832;28;20043;-74
2022/03/30 05:57:03;;;;;;;40.92;13.25;;;10.20;69.90;;;;;;5254733;27;20048;-74
2022/03/30 05:59:37;;;;;;;40.33;13.23;;;10.30;69.70;;;;;;5276238;27;20055;-74
2022/03/30 06:02:11;;;;;;;41.63;12.40;;;10.30;69.50;;;;;;5269325;28;20062;-75
2022/03/30 06:04:50;;;;;;;39.17;12.82;;;10.30;70.40;;;;;;5273291;28;20043;-75
2022/03/30 06:07:23;;;;;;;42.08;14.35;;;10.40;70.30;;;;;;5256436;28;20058;-74
2022/03/30 06:09:56;;;;;;;29.60;12.23;;;10.40;70.40;;;;;;5258155;28;20483;-74
2022/03/30 06:12:29;;;;;;;44.13;14.55;;;10.40;70.30;;;;;;5258869;27;20526;-74
2022/03/30 06:15:01;;;;;;;41.50;13.07;;;10.50;70.40;;;;;;5256326;28;20411;-74
2022/03/30 06:17:38;;;;;;;36.40;13.10;;;10.40;70.50;;;;;;5277416;27;20392;-74
2022/03/30 06:20:11;;;;;;;32.47;13.45;;;10.50;70.50;;;;;;5273082;28;20047;-75
2022/03/30 06:22:44;;;;;;;43.78;12.45;;;10.60;70.20;;;;;;5276202;27;20081;-75
2022/03/30 06:25:17;;;;;;;44.63;14.93;;;10.60;69.30;;;;;;5265775;28;20044;-75
2022/03/30 06:27:49;;;;;;;33.90;13.40;;;10.70;69.50;;;;;;5272777;27;20055;-75
2022/03/30 06:30:22;;;;;;;38.15;12.52;;;10.70;70.30;;;;;;5272907;27;20035;-75
2022/03/30 06:32:54;;;;;;;40.58;12.52;;;10.80;70.30;;;;;;5275533;27;20043;-75
2022/03/30 06:35:26;;;;;;;41.88;13.40;;;10.90;70.30;;;;;;5255781;28;20056;-76
2022/03/30 06:37:59;;;;;;;37.58;13.02;;;10.90;69.30;;;;;;5278506;27;20054;-75
2022/03/30 06:40:33;;;;;;;40.05;13.93;;;10.90;68.70;;;;;;5247674;28;20391;-75
2022/03/30 06:43:05;;;;;;;45.83;13.35;;;11.00;68.40;;;;;;5268812;27;20054;-75
2022/03/30 06:45:39;;;;;;;48.83;14.52;;;11.10;68.50;;;;;;5272815;27;20961;-75
2022/03/30 06:48:18;;;;;;;37.42;13.55;;;11.10;68.80;;;;;;5255557;28;20035;-75
2022/03/30 06:50:50;;;;;;;42.95;13.57;;;11.20;69.30;;;;;;5255408;28;20571;-75
2022/03/30 06:53:23;;;;;;;46.42;13.63;;;11.30;68.90;;;;;;5249421;28;20062;-75
2022/03/30 06:55:56;;;;;;;54.07;13.00;;;11.30;68.80;;;;;;5273907;27;20044;-74
2022/03/30 06:58:29;;;;;;;44.53;13.00;;;11.30;67.90;;;;;;5252155;28;20055;-75
2022/03/30 07:01:01;;;;;;;45.85;14.02;;;11.40;67.90;;;;;;5257515;28;20055;-74
2022/03/30 07:03:34;;;;;;;44.15;12.90;;;11.50;67.60;;;;;;5255500;28;20067;-75
2022/03/30 07:06:07;;;;;;;34.00;12.35;;;11.50;67.10;;;;;;5273623;28;20044;-74
2022/03/30 07:11:30;;;;;;;35.55;11.55;;;11.70;66.50;;;;;;5258443;28;20054;-74
2022/03/30 07:14:03;;;;;;;44.80;13.13;;;11.80;66.10;;;;;;5256565;28;20036;-74
2022/03/30 07:16:35;;;;;;;52.13;12.15;;;11.80;65.80;;;;;;5246322;27;20063;-75
2022/03/30 07:19:08;;;;;;;37.75;12.90;;;11.90;66.00;;;;;;5253202;28;20048;-74
2022/03/30 07:21:40;;;;;;;37.38;12.15;;;12.00;65.60;;;;;;5275416;27;20052;-74
2022/03/30 07:24:12;;;;;;;42.90;11.55;;;12.10;65.80;;;;;;5273280;28;20492;-74
2022/03/30 07:26:45;;;;;;;47.10;11.95;;;12.20;65.50;;;;;;5272341;28;20070;-75
2022/03/30 07:29:17;;;;;;;44.75;11.13;;;12.30;65.50;;;;;;5276466;28;20047;-74
2022/03/30 07:31:50;;;;;;;49.42;12.57;;;12.40;65.60;;;;;;5255027;28;20617;-75
2022/03/30 07:34:23;;;;;;;45.42;10.70;;;12.40;65.60;;;;;;5278708;28;20124;-74
2022/03/30 07:36:57;;;;;;;46.67;10.85;;;12.50;65.70;;;;;;5254324;28;20347;-75
2022/03/30 07:39:29;;;;;;;39.13;11.25;;;12.60;65.40;;;;;;5251987;28;20067;-75
2022/03/30 07:42:02;;;;;;;65.25;12.00;;;12.60;65.60;;;;;;5268435;28;20063;-75
2022/03/30 07:44:35;;;;;;;46.63;10.07;;;12.70;65.70;;;;;;5251376;28;20066;-75
2022/03/30 07:47:07;;;;;;;46.38;10.68;;;12.70;65.40;;;;;;5276037;28;20054;-75
2022/03/30 07:49:40;;;;;;;65.10;11.38;;;12.70;65.50;;;;;;5266359;28;20685;-74
2022/03/30 07:52:12;;;;;;;48.65;10.25;;;12.70;65.50;;;;;;5236389;28;20044;-75
2022/03/30 07:54:45;;;;;;;47.05;10.40;;;12.80;65.80;;;;;;5253418;28;20044;-74
2022/03/30 07:57:25;;;;;;;48.33;11.50;;;12.80;66.00;;;;;;5248679;27;20387;-74
2022/03/30 08:00:01;;;;;;;52.17;12.25;;;12.90;65.60;;;;;;5244003;27;20043;-74
2022/03/30 08:02:36;;;;;;;47.25;11.38;;;12.90;65.60;;;;;;5218333;27;22885;-74
2022/03/30 08:05:10;;;;;;;38.58;9.43;;;12.90;65.70;;;;;;5262759;27;20047;-75
2022/03/30 08:07:45;;;;;;;39.80;9.52;;;12.90;65.50;;;;;;5270036;22;20044;-72
2022/03/30 08:10:18;;;;;;;41.95;10.48;;;12.90;65.60;;;;;;5267850;28;20079;-72
2022/03/30 08:12:50;;;;;;;43.40;10.05;;;12.90;65.70;;;;;;5254311;28;20047;-70
2022/03/30 08:15:24;;;;;;;41.88;9.70;;;12.90;65.60;;;;;;5238683;28;20047;-72
2022/03/30 08:17:57;;;;;;;40.85;9.45;;;12.90;65.70;;;;;;5237494;28;20407;-72
2022/03/30 08:23:22;;;;;;;46.05;9.88;;;12.90;65.50;;;;;;5247363;28;20052;-72
2022/03/30 08:25:55;;;;;;;52.13;10.18;;;12.90;65.80;;;;;;5247861;28;20530;-71
2022/03/30 08:28:27;;;;;;;44.95;9.15;;;13.00;66.50;;;;;;5245368;28;20049;-72
2022/03/30 08:31:00;;;;;;;41.75;11.13;;;13.10;66.10;;;;;;5250813;28;20040;-72
2022/03/30 08:33:37;;;;;;;52.38;10.55;;;13.10;66.10;;;;;;5231902;28;20044;-72
2022/03/30 08:36:09;;;;;;;52.88;10.25;;;13.20;66.40;;;;;;5239417;28;20044;-71
2022/03/30 08:38:42;;;;;;;39.83;9.98;;;13.10;66.00;;;;;;5235956;28;20059;-72
2022/03/30 08:41:15;;;;;;;50.83;10.38;;;13.10;66.10;;;;;;5229486;28;20044;-71
2022/03/30 08:43:49;;;;;;;44.97;10.45;;;13.10;65.80;;;;;;5228033;28;20040;-70
2022/03/30 08:46:22;;;;;;;51.42;11.85;;;13.20;66.20;;;;;;5232601;28;20044;-72
2022/03/30 08:48:54;;;;;;;41.17;10.55;;;13.20;65.80;;;;;;5233303;28;20051;-72
2022/03/30 08:51:27;;;;;;;46.20;10.77;;;13.20;66.30;;;;;;5238765;28;20053;-71
2022/03/30 08:54:00;;;;;;;47.00;11.87;;;13.20;65.70;;;;;;5249947;28;20032;-72
2022/03/30 08:56:32;;;;;;;44.75;10.75;;;13.20;65.50;;;;;;5230768;28;20071;-71
2022/03/30 08:59:06;;;;;;;42.17;10.07;;;13.10;65.60;;;;;;5243410;28;20982;-72
2022/03/30 09:01:40;;;;;;;53.53;11.20;;;13.10;65.80;;;;;;5246554;28;20514;-72
2022/03/30 09:04:14;;;;;;;45.53;10.38;;;13.10;65.70;;;;;;5247164;28;20407;-72
2022/03/30 09:06:58;;;;;;;38.63;10.85;;;13.10;66.10;;;;;;5243969;28;20067;-70
2022/03/30 09:09:41;;;;;;;33.60;9.82;;;13.20;67.00;;;;;;5232781;28;20048;-72
2022/03/30 09:12:14;;;;;;;50.13;11.70;;;13.10;66.60;;;;;;4525557;28;10000526;-71
2022/03/30 09:14:47;;;;;;;47.53;10.75;;;13.00;66.90;;;;;;5228213;28;20036;-70
2022/03/30 09:17:21;;;;;;;34.92;10.45;;;13.00;67.50;;;;;;5238631;28;20040;-70
2022/03/30 09:19:56;;;;;;;35.80;11.07;;;12.90;67.70;;;;;;5232306;28;20052;-72
2022/03/30 09:22:28;;;;;;;38.33;9.70;;;12.90;68.70;;;;;;5230961;28;21364;-72
2022/03/30 09:25:06;;;;;;;48.38;10.82;;;12.90;69.30;;;;;;5233788;28;20688;-70
2022/03/30 09:27:42;;;;;;;44.78;12.88;;;12.90;70.20;;;;;;5233475;28;20055;-72
2022/03/30 09:30:15;;;;;;;43.67;11.27;;;12.90;69.80;;;;;;5243080;28;20079;-72
2022/03/30 09:32:49;;;;;;;42.65;10.25;;;13.00;70.10;;;;;;5226704;28;20052;-72
2022/03/30 09:35:33;;;;;;;45.35;11.98;;;13.10;70.30;;;;;;5230577;28;20075;-70
2022/03/30 09:38:10;;;;;;;44.88;11.57;;;13.10;70.50;;;;;;5219188;28;20055;-71
2022/03/30 09:40:47;;;;;;;43.03;11.68;;;13.00;70.30;;;;;;5228354;28;20423;-71
2022/03/30 09:43:29;;;;;;;41.17;11.68;;;13.00;71.00;;;;;;5222932;28;20051;-70
2022/03/30 09:46:13;;;;;;;41.00;11.55;;;13.00;72.30;;;;;;5234859;28;20055;-72
2022/03/30 09:48:52;;;;;;;38.05;10.85;;;13.00;72.60;;;;;;5230738;28;20494;-72
2022/03/30 09:51:26;;;;;;;48.03;11.15;;;13.00;71.70;;;;;;5234876;28;20044;-72
2022/03/30 09:53:59;;;;;;;41.10;11.70;;;13.00;71.90;;;;;;5240007;28;20055;-71
2022/03/30 09:56:33;;;;;;;44.00;11.90;;;13.00;71.90;;;;;;5249486;28;20053;-70
2022/03/30 09:59:06;;;;;;;41.58;11.30;;;13.10;72.00;;;;;;5259443;28;20041;-70
2022/03/30 10:01:38;;;;;;;46.67;11.98;;;13.10;72.10;;;;;;5244133;28;20053;-70
2022/03/30 10:04:12;;;;;;;48.63;11.32;;;13.10;72.00;;;;;;5251584;28;20040;-71
2022/03/30 10:06:44;;;;;;;44.25;12.18;;;13.20;73.00;;;;;;5270380;22;20044;-70
2022/03/30 10:09:17;;;;;;;50.65;12.55;;;13.20;73.30;;;;;;5224158;28;20538;-70
2022/03/30 10:11:50;;;;;;;39.22;12.27;;;13.10;72.80;;;;;;5245777;28;20052;-70
2022/03/30 10:14:23;;;;;;;41.57;12.27;;;13.10;73.10;;;;;;5241307;28;20059;-70
2022/03/30 10:16:55;;;;;;;33.70;11.07;;;13.10;73.80;;;;;;5243677;28;20321;-69
2022/03/30 10:19:28;;;;;;;38.22;12.13;;;13.00;73.60;;;;;;5246900;28;20091;-70
2022/03/30 10:22:33;;;;;;;39.57;10.80;;;12.90;73.40;;;;;;5245714;28;20049;-70
2022/03/30 10:25:30;;;;;;;37.60;11.27;;;12.90;75.00;;;;;;5209732;28;20061;-72
2022/03/30 10:28:35;;;;;;;42.13;11.05;;;12.90;74.20;;;;;;5228272;28;20048;-70
2022/03/30 10:31:07;;;;;;;;;;;12.80;74.70;;;;;;5248499;28;20044;-70
2022/03/30 10:33:42;;;;;;;38.70;10.80;;;12.80;75.80;;;;;;5241754;28;19924;-70
2022/03/30 10:36:28;;;;;;;35.08;10.30;;;12.90;74.50;;;;;;5235871;28;20041;-70
2022/03/30 10:39:16;;;;;;;32.53;12.23;;;12.90;74.90;;;;;;5234704;28;20443;-70
2022/03/30 10:42:10;;;;;;;29.27;9.30;;;12.90;76.20;;;;;;5237880;28;20514;-69
2022/03/30 10:44:49;;;;;;;28.08;10.90;;;12.80;75.10;;;;;;5234228;28;20047;-70
2022/03/30 10:47:24;;;;;;;35.75;10.82;;;12.80;76.30;;;;;;5236180;28;20032;-70
2022/03/30 10:50:00;;;;;;;34.67;12.00;;;12.80;75.60;;;;;;5233784;28;20051;-70
2022/03/30 10:52:41;;;;;;;36.55;11.60;;;12.70;75.60;;;;;;5221031;28;20587;-70
2022/03/30 10:55:13;;;;;;;28.60;9.63;;;12.70;76.30;;;;;;5226054;28;21387;-70
2022/03/30 10:57:50;;;;;;;40.78;11.10;;;12.70;76.10;;;;;;5228546;28;20053;-71
2022/03/30 11:00:26;;;;;;;32.10;10.32;;;12.80;76.00;;;;;;5236140;28;20504;-69
2022/03/30 11:03:20;;;;;;;27.42;10.57;;;12.80;76.10;;;;;;5240670;28;20044;-70
2022/03/30 11:06:05;;;;;;;31.77;10.90;;;13.00;76.20;;;;;;5232320;28;20055;-70
2022/03/30 11:08:45;;;;;;;35.78;10.40;;;13.00;75.10;;;;;;5228687;28;20465;-72
2022/03/30 11:11:22;;;;;;;32.13;10.65;;;13.00;75.20;;;;;;5228105;28;20049;-69
2022/03/30 11:14:29;;;;;;;34.92;10.75;;;13.10;75.20;;;;;;5225048;28;20036;-70
2022/03/30 11:17:10;;;;;;;34.38;10.40;;;13.20;75.20;;;;;;5239543;28;20035;-70
2022/03/30 11:19:54;;;;;;;34.13;11.75;;;13.20;74.10;;;;;;5231542;28;20040;-69
2022/03/30 11:22:36;;;;;;;28.25;9.20;;;13.20;74.30;;;;;;5209688;28;20052;-70
2022/03/30 11:25:13;;;;;;;33.95;11.25;;;13.20;74.20;;;;;;5223644;28;20040;-70
2022/03/30 11:27:58;;;;;;;37.85;9.80;;;13.10;73.70;;;;;;5228867;28;20560;-70
2022/03/30 11:30:39;;;;;;;32.30;10.25;;;13.20;74.30;;;;;;5232789;28;20511;-70
2022/03/30 11:33:26;;;;;;;37.13;9.88;;;13.30;74.00;;;;;;5228498;28;20059;-70
2022/03/30 11:36:00;;;;;;;39.20;9.90;;;13.30;74.20;;;;;;5226883;28;20056;-70
2022/03/30 11:38:37;;;;;;;;;;;13.40;73.50;;;;;;5230407;28;20066;-70
2022/03/30 11:41:10;;;;;;;36.28;9.05;;;13.50;74.70;;;;;;5229111;28;19966;-70
2022/03/30 11:46:38;;;;;;;32.95;10.07;;;13.50;72.20;;;;;;5208621;28;20636;-70
2022/03/30 11:49:11;;;;;;;30.17;10.02;;;13.40;72.50;;;;;;5209388;28;20397;-69
2022/03/30 11:51:44;;;;;;;35.13;11.35;;;13.40;73.00;;;;;;5226061;28;20040;-70
2022/03/30 11:54:19;;;;;;;38.67;10.00;;;13.40;73.10;;;;;;5228064;28;20055;-70
2022/03/30 11:56:52;;;;;;;44.78;10.73;;;13.60;73.50;;;;;;5217411;28;20051;-70
2022/03/30 11:59:25;;;;;;;37.13;10.18;;;13.70;73.40;;;;;;5219931;28;20052;-70
2022/03/30 12:01:57;;;;;;;34.08;11.13;;;13.50;72.70;;;;;;5232101;28;20530;-69
2022/03/30 12:04:31;;;;;;;38.92;10.20;;;13.40;73.50;;;;;;5206014;28;20056;-70
2022/03/30 12:07:04;;;;;;;34.25;12.07;;;13.40;74.50;;;;;;5216683;28;20510;-70
2022/03/30 12:09:47;;;;;;;40.40;11.20;;;13.50;75.00;;;;;;5237276;28;20048;-70
2022/03/30 12:12:36;;;;;;;32.92;11.88;;;13.50;75.80;;;;;;5244881;28;20509;-70
2022/03/30 12:15:17;;;;;;;38.65;13.10;;;13.30;76.70;;;;;;5229969;28;20542;-70
2022/03/30 12:17:56;;;;;;;42.28;11.77;;;13.20;77.60;;;;;;5214077;28;20043;-69
2022/03/30 12:20:33;;;;;;;34.28;12.00;;;13.10;78.20;;;;;;5216276;28;20483;-72
2022/03/30 12:23:10;;;;;;;35.50;11.98;;;13.00;78.40;;;;;;5221506;28;20055;-72
2022/03/30 12:25:44;;;;;;;28.48;12.45;;;13.00;78.90;;;;;;5196686;28;20055;-71
2022/03/30 12:28:28;;;;;;;34.33;12.85;;;13.00;78.40;;;;;;5217953;28;21114;-71
2022/03/30 12:31:01;;;;;;;37.50;13.35;;;12.90;78.30;;;;;;5211276;28;20045;-71
2022/03/30 12:33:48;;;;;;;33.67;11.07;;;12.90;78.20;;;;;;5221913;28;20059;-71
2022/03/30 12:36:21;;;;;;;35.83;10.93;;;12.80;78.50;;;;;;5216502;28;20047;-70
2022/03/30 12:38:54;;;;;;;35.08;11.20;;;12.80;78.80;;;;;;5214553;28;20065;-70
2022/03/30 12:41:27;;;;;;;35.38;11.98;;;12.70;79.60;;;;;;5237459;28;20550;-70
2022/03/30 12:44:01;;;;;;;32.05;11.73;;;12.80;81.00;;;;;;5228338;28;20048;-70
2022/03/30 12:46:35;;;;;;;44.55;12.65;;;12.80;81.30;;;;;;5228782;28;20412;-70
2022/03/30 12:49:08;;;;;;;43.42;13.43;;;12.80;82.00;;;;;;5227864;28;20585;-71
2022/03/30 12:51:41;;;;;;;46.63;15.65;;;12.70;81.30;;;;;;5232548;28;20044;-70
2022/03/30 12:54:21;;;;;;;38.85;13.20;;;12.70;82.90;;;;;;5228828;28;20055;-71
2022/03/30 12:56:53;;;;;;;34.03;13.07;;;12.60;84.00;;;;;;5225703;28;20044;-71
2022/03/30 12:59:26;;;;;;;41.42;13.35;;;12.50;84.90;;;;;;5218107;28;20044;-71
2022/03/30 13:01:58;;;;;;;34.55;15.38;;;12.40;86.40;;;;;;5221269;28;20054;-71
2022/03/30 13:04:31;;;;;;;44.42;14.93;;;12.40;90.10;;;;;;5220527;28;20044;-71
2022/03/30 13:07:07;;;;;;;47.72;15.38;;;12.20;91.20;;;;;;5220604;28;20628;-70
2022/03/30 13:09:59;;;;;;;41.35;14.95;;;12.20;93.40;;;;;;5221981;28;20574;-71
2022/03/30 13:12:37;;;;;;;40.92;14.70;;;12.20;98.50;;;;;;4517310;28;10000649;-70
2022/03/30 13:15:15;;;;;;;40.33;16.10;;;12.20;94.60;;;;;;5217200;28;20036;-71
2022/03/30 13:18:04;;;;;;;37.30;16.52;;;12.20;96.80;;;;;;5202203;28;20044;-71